Time;durP1;ratioP1;P1;durP2;ratioP2;P2;SDS_P1;SDS_P2;PMS_P1;PMS_P2;Temp;Humidity;BMP_temperature;BMP_pressure;BME280_temperature;BME280_humidity;BME280_pressure;Samples;Min_cycle;Max_cycle;Signal;HPM_P1;HPM_P2
2021/04/22 00:02:07;;;;;;;;;;;14.10;61.60;;;;;;4992893;28;75189;-73
2021/04/22 00:04:33;;;;;;;;;;;14.10;62.10;;;;;;4991926;28;75445;-82
2021/04/22 00:06:59;;;;;;;;;;;13.90;63.10;;;;;;4991737;28;76970;-75
2021/04/22 00:09:24;;;;;;;;;;;13.90;63.10;;;;;;4993343;28;75678;-71
2021/04/22 00:11:50;;;;;;;;;;;13.80;64.00;;;;;;4993241;28;75221;-81
2021/04/22 00:14:16;;;;;;;;;;;13.70;63.90;;;;;;4993126;28;75359;-80
2021/04/22 00:16:42;;;;;;;;;;;13.70;64.70;;;;;;4993458;28;74587;-79
2021/04/22 00:19:08;;;;;;;;;;;13.70;65.30;;;;;;4991234;28;75354;-82
2021/04/22 00:21:33;;;;;;;;;;;13.70;65.70;;;;;;4991335;28;78286;-82
2021/04/22 00:23:59;;;;;;;;;;;13.70;66.90;;;;;;4991570;28;77335;-82
2021/04/22 00:26:25;;;;;;;;;;;13.70;66.70;;;;;;4993018;28;74993;-81
2021/04/22 00:28:51;;;;;;;;;;;13.80;66.60;;;;;;4991662;28;74664;-83
2021/04/22 00:31:17;;;;;;;;;;;13.80;66.40;;;;;;4992884;28;75345;-81
2021/04/22 00:33:42;;;;;;;;;;;13.80;67.40;;;;;;4993180;28;74956;-73
2021/04/22 00:36:08;;;;;;;;;;;13.70;66.90;;;;;;4990924;28;78411;-71
2021/04/22 00:38:34;;;;;;;;;;;13.70;68.00;;;;;;4993185;28;74287;-67
2021/04/22 00:40:59;;;;;;;;;;;13.60;67.80;;;;;;4991282;28;75511;-67
2021/04/22 00:43:25;;;;;;;;;;;13.50;69.30;;;;;;4991245;28;76265;-67
2021/04/22 00:45:51;;;;;;;;;;;13.50;69.60;;;;;;4993462;28;75079;-66
2021/04/22 00:48:18;;;;;;;;;;;13.40;71.10;;;;;;4993593;28;75189;-66
2021/04/22 00:50:44;;;;;;;;;;;13.30;71.00;;;;;;4991737;28;77544;-67
2021/04/22 00:53:10;;;;;;;;;;;13.20;70.60;;;;;;4992809;28;75001;-74
2021/04/22 00:55:37;;;;;;;;;;;13.10;71.60;;;;;;4993223;28;74472;-73
2021/04/22 00:58:03;;;;;;;;;;;13.10;73.10;;;;;;4991400;28;74699;-73
2021/04/22 01:00:55;;;;;;;;;;;12.90;74.80;;;;;;4992247;28;75275;-78
2021/04/22 01:03:21;;;;;;;;;;;12.70;75.20;;;;;;4989505;28;77445;-71
2021/04/22 01:05:51;;;;;;;;;;;12.60;76.20;;;;;;4990908;28;77606;-75
2021/04/22 01:08:16;;;;;;;;;;;12.50;75.90;;;;;;4991230;28;75705;-68
2021/04/22 01:10:42;;;;;;;;;;;12.50;76.20;;;;;;4991010;28;77675;-68
2021/04/22 01:13:08;;;;;;;;;;;12.60;76.40;;;;;;4991215;28;76455;-71
2021/04/22 01:15:34;;;;;;;;;;;12.50;76.70;;;;;;4991139;28;77296;-70
2021/04/22 01:18:00;;;;;;;;;;;12.50;77.20;;;;;;4992246;28;75052;-71
2021/04/22 01:20:33;;;;;;;;;;;12.50;77.80;;;;;;4990672;28;77749;-68
2021/04/22 01:23:00;;;;;;;;;;;12.50;78.50;;;;;;4990471;28;75454;-69
2021/04/22 01:25:34;;;;;;;;;;;12.60;78.30;;;;;;4992194;28;75093;-68
2021/04/22 01:28:00;;;;;;;;;;;12.50;77.90;;;;;;4990640;28;77237;-68
2021/04/22 01:30:30;;;;;;;;;;;12.60;78.10;;;;;;4992282;28;75071;-68
2021/04/22 01:32:56;;;;;;;;;;;12.50;77.90;;;;;;4990680;28;76262;-67
2021/04/22 01:35:25;;;;;;;;;;;12.60;77.50;;;;;;4992467;28;75437;-67
2021/04/22 01:37:51;;;;;;;;;;;12.70;77.10;;;;;;4993019;28;75232;-66
2021/04/22 01:40:17;;;;;;;;;;;12.70;77.20;;;;;;4990704;28;77021;-69
2021/04/22 01:42:43;;;;;;;;;;;12.80;77.30;;;;;;4992512;28;75779;-69
2021/04/22 01:45:09;;;;;;;;;;;12.80;77.20;;;;;;4992369;28;75183;-67
2021/04/22 01:47:35;;;;;;;;;;;12.90;77.00;;;;;;4990823;28;75388;-67
2021/04/22 01:50:01;;;;;;;;;;;12.90;76.50;;;;;;4991041;28;77320;-70
2021/04/22 01:52:27;;;;;;;;;;;12.80;76.50;;;;;;4990377;28;77286;-66
2021/04/22 01:54:53;;;;;;;;;;;12.80;76.10;;;;;;4992211;28;75138;-73
2021/04/22 01:57:18;;;;;;;;;;;12.80;76.00;;;;;;4992386;28;74984;-67
2021/04/22 01:59:44;;;;;;;;;;;12.70;76.50;;;;;;4992427;28;74548;-79
2021/04/22 02:02:10;;;;;;;;;;;12.70;76.90;;;;;;4991591;28;75275;-69
2021/04/22 02:04:35;;;;;;;;;;;12.70;77.50;;;;;;4990942;28;78209;-74
2021/04/22 02:07:02;;;;;;;;;;;12.60;77.60;;;;;;4991787;28;75200;-69
2021/04/22 02:09:27;;;;;;;;;;;12.60;77.70;;;;;;4991900;28;74512;-70
2021/04/22 02:11:53;;;;;;;;;;;12.60;77.00;;;;;;4992229;28;75155;-70
2021/04/22 02:14:19;;;;;;;;;;;12.60;76.80;;;;;;4992220;28;75057;-75
2021/04/22 02:16:44;;;;;;;;;;;12.70;76.70;;;;;;4994609;28;77364;-75
2021/04/22 02:19:10;;;;;;;;;;;12.60;76.20;;;;;;4995471;28;76246;-72
2021/04/22 02:21:36;;;;;;;;;;;12.70;76.50;;;;;;4993810;28;76742;-78
2021/04/22 02:24:02;;;;;;;;;;;12.80;76.70;;;;;;4995510;28;74384;-77
2021/04/22 02:26:27;;;;;;;;;;;12.80;76.40;;;;;;4995192;28;74947;-78
2021/04/22 02:28:53;;;;;;;;;;;12.80;76.10;;;;;;4995706;28;74494;-75
2021/04/22 02:31:19;;;;;;;;;;;12.80;76.10;;;;;;4995172;28;75090;-80
2021/04/22 02:33:44;;;;;;;;;;;12.80;75.70;;;;;;4994235;28;77529;-80
2021/04/22 02:36:10;;;;;;;;;;;12.80;75.60;;;;;;4994917;28;75403;-73
2021/04/22 02:38:36;;;;;;;;;;;12.80;75.90;;;;;;4993243;28;76173;-79
2021/04/22 02:41:01;;;;;;;;;;;12.80;75.80;;;;;;4994742;28;75186;-72
2021/04/22 02:43:27;;;;;;;;;;;12.90;75.90;;;;;;4992835;28;75593;-82
2021/04/22 02:45:53;;;;;;;;;;;12.90;75.90;;;;;;4993170;28;75291;-78
2021/04/22 02:48:19;;;;;;;;;;;12.90;75.80;;;;;;4994229;28;75340;-76
2021/04/22 02:50:46;;;;;;;;;;;12.90;75.80;;;;;;4992983;28;75439;-78
2021/04/22 02:53:12;;;;;;;;;;;12.80;76.00;;;;;;4992826;28;76219;-74
2021/04/22 02:55:38;;;;;;;;;;;12.90;76.00;;;;;;4992806;28;76746;-74
2021/04/22 02:58:04;;;;;;;;;;;12.90;75.90;;;;;;4993331;28;76206;-74
2021/04/22 03:00:29;;;;;;;;;;;12.90;75.80;;;;;;4992011;28;75920;-67
2021/04/22 03:02:55;;;;;;;;;;;12.90;76.10;;;;;;4992808;28;75836;-68
2021/04/22 03:05:21;;;;;;;;;;;12.90;75.90;;;;;;4992814;28;75386;-67
2021/04/22 03:07:46;;;;;;;;;;;12.80;76.00;;;;;;4992416;28;75118;-73
2021/04/22 03:10:14;;;;;;;;;;;12.70;76.40;;;;;;4994292;28;74912;-67
2021/04/22 03:12:39;;;;;;;;;;;12.70;76.50;;;;;;4994107;28;75132;-71
2021/04/22 03:15:06;;;;;;;;;;;12.70;76.60;;;;;;4992678;28;76044;-69
2021/04/22 03:17:31;;;;;;;;;;;12.70;76.60;;;;;;4992308;28;74741;-69
2021/04/22 03:19:57;;;;;;;;;;;12.70;76.40;;;;;;4992385;28;75744;-66
2021/04/22 03:22:22;;;;;;;;;;;12.80;76.60;;;;;;4993595;28;75666;-67
2021/04/22 03:24:48;;;;;;;;;;;12.80;76.50;;;;;;4992058;28;74560;-66
2021/04/22 03:27:14;;;;;;;;;;;12.90;76.40;;;;;;4993754;28;75248;-66
2021/04/22 03:29:39;;;;;;;;;;;12.90;76.40;;;;;;4992002;28;77266;-68
2021/04/22 03:32:05;;;;;;;;;;;12.90;76.30;;;;;;4993715;28;75118;-70
2021/04/22 03:34:31;;;;;;;;;;;12.90;76.50;;;;;;4992353;28;76406;-68
2021/04/22 03:36:56;;;;;;;;;;;12.90;76.40;;;;;;4992100;28;78224;-67
2021/04/22 03:39:22;;;;;;;;;;;12.80;76.70;;;;;;4993674;28;75233;-67
2021/04/22 03:41:48;;;;;;;;;;;12.80;76.90;;;;;;4993511;28;75449;-67
2021/04/22 03:44:13;;;;;;;;;;;12.70;77.00;;;;;;4993649;28;75040;-74
2021/04/22 03:46:39;;;;;;;;;;;12.70;77.20;;;;;;4993100;28;77021;-73
2021/04/22 03:49:05;;;;;;;;;;;12.80;77.10;;;;;;4992216;28;77319;-70
2021/04/22 03:51:31;;;;;;;;;;;12.80;76.90;;;;;;4993595;28;74603;-73
2021/04/22 03:53:57;;;;;;;;;;;12.70;77.10;;;;;;4991847;28;74701;-75
2021/04/22 03:56:23;;;;;;;;;;;12.70;77.30;;;;;;4993639;28;75639;-75
2021/04/22 03:58:48;;;;;;;;;;;12.60;77.50;;;;;;4993228;28;74562;-81
2021/04/22 04:01:14;;;;;;;;;;;12.60;77.40;;;;;;4991672;28;77431;-72
2021/04/22 04:03:39;;;;;;;;;;;12.50;77.90;;;;;;4992999;28;75129;-72
2021/04/22 04:06:05;;;;;;;;;;;12.60;77.60;;;;;;4993098;28;75115;-78
2021/04/22 04:08:30;;;;;;;;;;;12.60;77.30;;;;;;4992814;28;74920;-74
2021/04/22 04:10:56;;;;;;;;;;;12.70;77.10;;;;;;4992736;28;75268;-73
2021/04/22 04:13:22;;;;;;;;;;;12.70;77.00;;;;;;4991880;28;76949;-77
2021/04/22 04:15:48;;;;;;;;;;;12.70;77.00;;;;;;4991373;28;76136;-76
2021/04/22 04:18:14;;;;;;;;;;;12.70;77.00;;;;;;4991835;28;77612;-79
2021/04/22 04:20:40;;;;;;;;;;;12.80;76.60;;;;;;4992761;28;75022;-77
2021/04/22 04:23:06;;;;;;;;;;;12.70;77.00;;;;;;4992869;28;75247;-78
2021/04/22 04:25:32;;;;;;;;;;;12.60;77.80;;;;;;4991761;28;77348;-76
2021/04/22 04:27:58;;;;;;;;;;;12.50;78.50;;;;;;4991537;28;75379;-80
2021/04/22 04:30:23;;;;;;;;;;;12.40;78.60;;;;;;4992877;28;75742;-83
2021/04/22 04:32:49;;;;;;;;;;;12.40;78.90;;;;;;4993698;28;75233;-78
2021/04/22 04:35:15;;;;;;;;;;;12.40;78.90;;;;;;4995713;28;76376;-76
2021/04/22 04:37:41;;;;;;;;;;;12.40;79.60;;;;;;4993634;28;74712;-75
2021/04/22 04:40:08;;;;;;;;;;;12.30;80.00;;;;;;4993309;28;75151;-79
2021/04/22 04:42:34;;;;;;;;;;;12.30;80.50;;;;;;4993782;28;75218;-83
2021/04/22 04:45:00;;;;;;;;;;;12.30;81.10;;;;;;4993098;28;75074;-75
2021/04/22 04:47:25;;;;;;;;;;;12.30;81.50;;;;;;4993247;28;75193;-74
2021/04/22 04:49:51;;;;;;;;;;;12.40;81.40;;;;;;4993185;28;74923;-80
2021/04/22 04:52:16;;;;;;;;;;;12.40;81.40;;;;;;4991328;28;76421;-79
2021/04/22 04:54:42;;;;;;;;;;;12.40;80.80;;;;;;4992704;28;75293;-71
2021/04/22 04:57:08;;;;;;;;;;;12.40;80.60;;;;;;4992893;28;75110;-76
2021/04/22 04:59:34;;;;;;;;;;;12.40;80.40;;;;;;4992637;28;75002;-76
2021/04/22 05:01:59;;;;;;;;;;;12.40;80.20;;;;;;4991138;28;77281;-70
2021/04/22 05:04:25;;;;;;;;;;;12.40;80.00;;;;;;4991212;28;77342;-68
2021/04/22 05:06:51;;;;;;;;;;;12.50;79.50;;;;;;4991177;28;77223;-67
2021/04/22 05:09:16;;;;;;;;;;;12.40;79.40;;;;;;4993406;28;74564;-79
2021/04/22 05:11:42;;;;;;;;;;;12.50;79.40;;;;;;4992922;28;74389;-71
2021/04/22 05:14:07;;;;;;;;;;;12.50;79.40;;;;;;4992484;28;75144;-67
2021/04/22 05:16:33;;;;;;;;;;;12.50;79.30;;;;;;4993920;28;74501;-68
2021/04/22 05:18:59;;;;;;;;;;;12.50;79.30;;;;;;4993704;28;75749;-70
2021/04/22 05:21:24;;;;;;;;;;;12.50;79.20;;;;;;4992916;28;75671;-78
2021/04/22 05:23:50;;;;;;;;;;;12.50;79.20;;;;;;4992354;28;77046;-76
2021/04/22 05:26:19;;;;;;;;;;;12.50;79.20;;;;;;4992387;28;75386;-70
2021/04/22 05:28:44;;;;;;;;;;;12.50;79.00;;;;;;4992949;28;75175;-75
2021/04/22 05:31:10;;;;;;;;;;;12.50;78.90;;;;;;4993039;28;75421;-68
2021/04/22 05:33:36;;;;;;;;;;;12.50;78.80;;;;;;4992743;28;75039;-67
2021/04/22 05:36:01;;;;;;;;;;;12.60;78.70;;;;;;4998078;28;75543;-66
2021/04/22 05:38:27;;;;;;;;;;;12.60;78.70;;;;;;5009396;28;77428;-65
2021/04/22 05:40:53;;;;;;;;;;;12.50;78.30;;;;;;5011869;28;75689;-64
2021/04/22 05:43:18;;;;;;;;;;;12.50;78.40;;;;;;5024807;28;74574;-64
2021/04/22 05:45:44;;;;;;;;;;;12.50;78.40;;;;;;5011554;28;75181;-64
2021/04/22 05:48:10;;;;;;;;;;;12.50;78.20;;;;;;5010887;28;75424;-64
2021/04/22 05:50:35;;;;;;;;;;;12.50;77.90;;;;;;5011052;28;75751;-64
2021/04/22 05:53:01;;;;;;;;;;;12.50;77.70;;;;;;5013021;28;77307;-65
2021/04/22 05:55:27;;;;;;;;;;;12.50;77.60;;;;;;5017216;28;75234;-64
2021/04/22 05:57:56;;;;;;;;;;;12.50;77.80;;;;;;5033475;28;75361;-63
2021/04/22 06:00:22;;;;;;;;;;;12.50;78.00;;;;;;5035090;28;74543;-65
2021/04/22 06:02:48;;;;;;;;;;;12.50;77.80;;;;;;5035011;28;75138;-68
2021/04/22 06:05:15;;;;;;;;;;;12.60;77.70;;;;;;5033789;28;76006;-69
2021/04/22 06:07:40;;;;;;;;;;;12.60;77.60;;;;;;5015047;28;75843;-69
2021/04/22 06:10:06;;;;;;;;;;;12.70;77.70;;;;;;5015459;28;75167;-68
2021/04/22 06:12:32;;;;;;;;;;;12.60;77.60;;;;;;5015321;28;75621;-65
2021/04/22 06:14:57;;;;;;;;;;;12.60;77.70;;;;;;5013835;28;76056;-60
2021/04/22 06:17:23;;;;;;;;;;;12.60;78.00;;;;;;5013089;28;77410;-59
2021/04/22 06:19:49;;;;;;;;;;;12.70;78.00;;;;;;5013582;28;77969;-64
2021/04/22 06:22:14;;;;;;;;;;;12.80;78.20;;;;;;5014590;28;75252;-63
2021/04/22 06:24:40;;;;;;;;;;;12.80;78.20;;;;;;5013378;28;75832;-61
2021/04/22 06:27:05;;;;;;;;;;;12.90;78.00;;;;;;5014460;28;75176;-59
2021/04/22 06:29:31;;;;;;;;;;;12.90;78.10;;;;;;5014747;28;75168;-61
2021/04/22 06:31:56;;;;;;;;;;;13.00;78.10;;;;;;5014904;28;75105;-59
2021/04/22 06:34:22;;;;;;;;;;;13.00;77.90;;;;;;5014109;28;75708;-61
2021/04/22 06:36:49;;;;;;;;;;;13.00;77.60;;;;;;5012787;28;77416;-61
2021/04/22 06:39:14;;;;;;;;;;;13.00;77.50;;;;;;5018498;28;77317;-59
2021/04/22 06:41:40;;;;;;;;;;;13.00;77.50;;;;;;5013076;28;75772;-60
2021/04/22 06:44:06;;;;;;;;;;;13.00;77.50;;;;;;5014395;28;74885;-61
2021/04/22 06:46:33;;;;;;;;;;;12.90;77.50;;;;;;5011795;28;77323;-59
2021/04/22 06:48:58;;;;;;;;;;;12.90;77.50;;;;;;5014046;28;75239;-60
2021/04/22 06:51:24;;;;;;;;;;;12.90;77.40;;;;;;5012628;28;75089;-59
2021/04/22 06:53:50;;;;;;;;;;;13.00;77.60;;;;;;5026571;28;76988;-61
2021/04/22 06:56:15;;;;;;;;;;;13.00;77.30;;;;;;5033771;28;75222;-59
2021/04/22 06:58:41;;;;;;;;;;;13.10;77.00;;;;;;5032589;28;77113;-64
2021/04/22 07:01:07;;;;;;;;;;;13.00;76.90;;;;;;5033235;28;74959;-59
2021/04/22 07:03:32;;;;;;;;;;;13.00;76.80;;;;;;5032127;28;77411;-61
2021/04/22 07:05:58;;;;;;;;;;;13.00;76.80;;;;;;5032384;28;76308;-60
2021/04/22 07:08:23;;;;;;;;;;;13.00;76.90;;;;;;5032867;28;75142;-62
2021/04/22 07:10:49;;;;;;;;;;;13.00;77.10;;;;;;5032685;28;77184;-60
2021/04/22 07:13:15;;;;;;;;;;;13.00;77.20;;;;;;5032500;28;77428;-59
2021/04/22 07:15:40;;;;;;;;;;;13.00;77.30;;;;;;5034381;28;75183;-58
2021/04/22 07:18:06;;;;;;;;;;;13.00;77.30;;;;;;5031920;28;76596;-63
2021/04/22 07:20:32;;;;;;;;;;;13.10;77.80;;;;;;5032069;28;77051;-60
2021/04/22 07:22:58;;;;;;;;;;;13.00;77.60;;;;;;5033814;28;75228;-65
2021/04/22 07:25:25;;;;;;;;;;;13.00;77.60;;;;;;5034146;28;74468;-60
2021/04/22 07:27:51;;;;;;;;;;;13.00;77.80;;;;;;5031874;28;77863;-61
2021/04/22 07:30:17;;;;;;;;;;;13.10;77.60;;;;;;5032995;28;74996;-59
2021/04/22 07:32:43;;;;;;;;;;;13.10;77.60;;;;;;5031992;28;74950;-60
2021/04/22 07:35:09;;;;;;;;;;;13.10;77.60;;;;;;5018039;28;75134;-61
2021/04/22 07:37:35;;;;;;;;;;;13.10;77.40;;;;;;5032129;28;75308;-60
2021/04/22 07:40:01;;;;;;;;;;;13.20;77.20;;;;;;5031936;28;77275;-60
2021/04/22 07:42:26;;;;;;;;;;;13.30;76.90;;;;;;5033379;28;75185;-60
2021/04/22 07:44:52;;;;;;;;;;;13.20;76.70;;;;;;5032426;28;76519;-61
2021/04/22 07:47:18;;;;;;;;;;;13.30;76.80;;;;;;5033194;28;75122;-60
2021/04/22 07:49:44;;;;;;;;;;;13.30;76.60;;;;;;5033298;28;74833;-65
2021/04/22 07:52:10;;;;;;;;;;;13.30;76.20;;;;;;5031898;28;75286;-59
2021/04/22 07:54:36;;;;;;;;;;;13.30;76.40;;;;;;5033205;28;75298;-60
2021/04/22 07:57:02;;;;;;;;;;;13.40;76.20;;;;;;5031320;28;76415;-62
2021/04/22 07:59:27;;;;;;;;;;;13.40;75.90;;;;;;5030999;28;76045;-65
2021/04/22 08:01:53;;;;;;;;;;;13.40;76.30;;;;;;5031820;28;77177;-63
2021/04/22 08:04:18;;;;;;;;;;;13.40;76.20;;;;;;5033139;28;75155;-59
2021/04/22 08:06:44;;;;;;;;;;;13.50;76.10;;;;;;5032915;28;74954;-59
2021/04/22 08:09:10;;;;;;;;;;;13.50;76.00;;;;;;5031202;28;76332;-64
2021/04/22 08:11:36;;;;;;;;;;;13.60;75.80;;;;;;5032959;28;74951;-64
2021/04/22 08:14:02;;;;;;;;;;;13.70;75.80;;;;;;5032037;28;75254;-62
2021/04/22 08:16:28;;;;;;;;;;;13.90;76.00;;;;;;5019525;28;75661;-59
2021/04/22 08:18:54;;;;;;;;;;;14.00;75.20;;;;;;5026731;28;76260;-62
2021/04/22 08:21:19;;;;;;;;;;;14.10;75.10;;;;;;5031232;28;77195;-59
2021/04/22 08:23:45;;;;;;;;;;;14.20;74.60;;;;;;5031312;28;77093;-64
2021/04/22 08:26:16;;;;;;;;;;;14.30;74.20;;;;;;5032919;28;75145;-65
2021/04/22 08:28:42;;;;;;;;;;;14.40;74.00;;;;;;5032608;28;75414;-62
2021/04/22 08:31:09;;;;;;;;;;;14.50;73.90;;;;;;5032750;28;75449;-60
2021/04/22 08:33:36;;;;;;;;;;;14.50;73.60;;;;;;5032629;28;75333;-60
2021/04/22 08:36:06;;;;;;;;;;;14.60;73.40;;;;;;5032714;28;75644;-60
2021/04/22 08:38:32;;;;;;;;;;;14.70;73.20;;;;;;5032234;28;74483;-59
2021/04/22 08:40:58;;;;;;;;;;;14.70;73.10;;;;;;5032504;28;75871;-62
2021/04/22 08:43:24;;;;;;;;;;;14.70;72.30;;;;;;5031176;28;77075;-60
2021/04/22 08:45:50;;;;;;;;;;;14.70;72.60;;;;;;5032771;28;74577;-59
2021/04/22 08:48:16;;;;;;;;;;;14.70;71.90;;;;;;5030750;28;77012;-63
2021/04/22 08:50:42;;;;;;;;;;;14.70;72.70;;;;;;5031054;28;76301;-63
2021/04/22 08:53:13;;;;;;;;;;;14.70;72.60;;;;;;5032912;28;74421;-69
2021/04/22 08:55:39;;;;;;;;;;;14.80;72.50;;;;;;5032767;28;75141;-67
2021/04/22 08:58:05;;;;;;;;;;;14.90;72.40;;;;;;5031821;28;75677;-61
2021/04/22 09:00:36;;;;;;;;;;;14.90;72.30;;;;;;5032149;28;75011;-59
2021/04/22 09:03:03;;;;;;;;;;;14.90;71.90;;;;;;5032087;28;75229;-59
2021/04/22 09:05:29;;;;;;;;;;;15.00;71.60;;;;;;5030553;28;75399;-59
2021/04/22 09:07:54;;;;;;;;;;;15.20;71.40;;;;;;5029858;28;74595;-59
2021/04/22 09:10:24;;;;;;;;;;;15.20;71.00;;;;;;5032413;28;75335;-62
2021/04/22 09:13:04;;;;;;;;;;;15.30;70.60;;;;;;5032680;28;74485;-60
2021/04/22 09:15:31;;;;;;;;;;;15.40;70.40;;;;;;5030675;28;78537;-63
2021/04/22 09:17:58;;;;;;;;;;;15.50;70.50;;;;;;5030257;28;77535;-65
2021/04/22 09:20:28;;;;;;;;;;;15.60;70.30;;;;;;5023131;28;76646;-67
2021/04/22 09:22:54;;;;;;;;;;;15.80;70.00;;;;;;5013204;28;75013;-64
2021/04/22 09:25:21;;;;;;;;;;;15.90;69.40;;;;;;5013904;28;75211;-61
2021/04/22 09:27:47;;;;;;;;;;;16.00;69.30;;;;;;5013415;28;77167;-63
2021/04/22 09:30:16;;;;;;;;;;;16.10;68.50;;;;;;5015796;28;75430;-69
2021/04/22 09:32:42;;;;;;;;;;;16.20;68.10;;;;;;5013668;28;75384;-66
2021/04/22 09:35:10;;;;;;;;;;;16.30;67.70;;;;;;5015791;28;75424;-67
2021/04/22 09:37:35;;;;;;;;;;;16.30;67.40;;;;;;5014749;28;76501;-59
2021/04/22 09:40:30;;;;;;;;;;;16.40;68.00;;;;;;5014930;28;76101;-60
2021/04/22 09:42:58;;;;;;;;;;;16.60;67.50;;;;;;5012048;28;77130;-64
2021/04/22 09:45:27;;;;;;;;;;;16.80;65.60;;;;;;5015745;28;74451;-61
2021/04/22 09:47:54;;;;;;;;;;;16.90;65.80;;;;;;5013488;28;78171;-62
2021/04/22 09:50:22;;;;;;;;;;;17.20;65.90;;;;;;5015513;28;75691;-61
2021/04/22 09:52:51;;;;;;;;;;;17.30;65.10;;;;;;5013680;28;78367;-62
2021/04/22 09:55:19;;;;;;;;;;;17.40;63.40;;;;;;5013712;28;77373;-59
2021/04/22 09:57:45;;;;;;;;;;;17.30;63.70;;;;;;5013880;28;75121;-60
2021/04/22 10:00:23;;;;;;;;;;;17.40;63.50;;;;;;5010773;28;77832;-62
2021/04/22 10:02:52;;;;;;;;;;;17.50;63.60;;;;;;5014766;28;75273;-62
2021/04/22 10:05:23;;;;;;;;;;;17.50;64.20;;;;;;5015237;28;75428;-59
2021/04/22 10:07:48;;;;;;;;;;;17.60;63.40;;;;;;5014918;28;75056;-59
2021/04/22 10:10:16;;;;;;;;;;;17.50;62.80;;;;;;5013009;28;77129;-64
2021/04/22 10:12:41;;;;;;;;;;;17.50;61.80;;;;;;5014573;28;75562;-60
2021/04/22 10:15:08;;;;;;;;;;;17.40;61.70;;;;;;5013153;28;75823;-59
2021/04/22 10:17:34;;;;;;;;;;;17.40;60.60;;;;;;5014443;28;77024;-61
2021/04/22 10:20:11;;;;;;;;;;;17.40;61.70;;;;;;5012864;28;76140;-59
2021/04/22 10:22:38;;;;;;;;;;;17.50;61.50;;;;;;5014088;28;75129;-62
2021/04/22 10:25:07;;;;;;;;;;;17.60;60.50;;;;;;5013776;28;75035;-61
2021/04/22 10:27:33;;;;;;;;;;;17.80;61.70;;;;;;5014152;28;75912;-63
2021/04/22 10:29:59;;;;;;;;;;;18.00;61.60;;;;;;5012823;28;75686;-65
2021/04/22 10:32:25;;;;;;;;;;;18.20;60.90;;;;;;5012659;28;75699;-67
2021/04/22 10:34:51;;;;;;;;;;;18.30;58.30;;;;;;5014175;28;74639;-61
2021/04/22 10:37:18;;;;;;;;;;;18.40;58.30;;;;;;5012031;28;75444;-64
2021/04/22 10:39:44;;;;;;;;;;;18.40;56.80;;;;;;5014087;28;75389;-64
2021/04/22 10:42:10;;;;;;;;;;;18.20;55.40;;;;;;5014424;28;75032;-63
2021/04/22 10:44:37;;;;;;;;;;;18.20;57.40;;;;;;5012967;28;76390;-69
2021/04/22 10:47:03;;;;;;;;;;;18.20;58.70;;;;;;5013294;28;75469;-65
2021/04/22 10:49:28;;;;;;;;;;;18.30;56.20;;;;;;5014193;28;75288;-61
2021/04/22 10:51:54;;;;;;;;;;;18.40;57.90;;;;;;5012381;28;77388;-62
2021/04/22 10:54:20;;;;;;;;;;;18.60;58.60;;;;;;5012487;28;77293;-61
2021/04/22 10:56:46;;;;;;;;;;;18.80;57.90;;;;;;5014017;28;74635;-60
2021/04/22 10:59:19;;;;;;;;;;;18.90;58.00;;;;;;5013750;28;75203;-63
2021/04/22 11:01:45;;;;;;;;;;;19.10;57.30;;;;;;5012605;28;75001;-60
2021/04/22 11:04:10;;;;;;;;;;;19.30;56.60;;;;;;5011734;28;75140;-60
2021/04/22 11:06:38;;;;;;;;;;;19.40;56.60;;;;;;5013254;28;75063;-59
2021/04/22 11:09:15;;;;;;;;;;;19.40;56.20;;;;;;5011532;28;74599;-60
2021/04/22 11:11:52;;;;;;;;;;;19.40;56.30;;;;;;5013962;28;75755;-59
2021/04/22 11:14:18;;;;;;;;;;;19.50;56.80;;;;;;5013560;28;75384;-60
2021/04/22 11:16:49;;;;;;;;;;;19.70;57.40;;;;;;5014010;28;74508;-60
2021/04/22 11:19:16;;;;;;;;;;;20.10;56.40;;;;;;5013416;28;75380;-66
2021/04/22 11:21:52;;;;;;;;;;;20.40;55.20;;;;;;5011990;28;75430;-61
2021/04/22 11:24:30;;;;;;;;;;;20.60;54.70;;;;;;5011827;28;78118;-62
2021/04/22 11:26:59;;;;;;;;;;;21.30;53.10;;;;;;5013310;28;74491;-65
2021/04/22 11:29:25;;;;;;;;;;;22.40;51.70;;;;;;5017437;28;75435;-65
2021/04/22 11:31:53;;;;;;;;;;;23.80;47.60;;;;;;5032111;28;75652;-62
2021/04/22 11:34:29;;;;;;;;;;;24.50;45.10;;;;;;5033290;28;75180;-70
2021/04/22 11:36:55;;;;;;;;;;;25.50;42.60;;;;;;5031766;28;76532;-71
2021/04/22 11:39:34;;;;;;;;;;;26.70;40.20;;;;;;5032868;28;75136;-64
2021/04/22 11:42:01;;;;;;;;;;;26.00;40.80;;;;;;5016952;28;75016;-63
2021/04/22 11:44:50;;;;;;;;;;;24.90;39.70;;;;;;5012945;28;77612;-67
2021/04/22 11:47:16;;;;;;;;;;;23.30;43.00;;;;;;5012341;28;75010;-67
2021/04/22 11:49:42;;;;;;;;;;;22.10;47.20;;;;;;5013019;28;75369;-70
2021/04/22 11:52:21;;;;;;;;;;;21.50;48.50;;;;;;5011883;28;75869;-65
2021/04/22 11:54:47;;;;;;;;;;;21.00;49.20;;;;;;5010602;28;75957;-64
2021/04/22 11:57:13;;;;;;;;;;;20.80;51.80;;;;;;5013148;28;75214;-65
2021/04/22 11:59:39;;;;;;;;;;;21.30;50.80;;;;;;5012644;28;75071;-61
2021/04/22 12:02:05;;;;;;;;;;;23.40;48.40;;;;;;5013045;28;75503;-73
2021/04/22 12:04:47;;;;;;;;;;;24.30;44.70;;;;;;5011258;28;77486;-70
2021/04/22 12:07:12;;;;;;;;;;;23.50;45.30;;;;;;5011534;28;77071;-62
2021/04/22 12:09:39;;;;;;;;;;;22.50;46.60;;;;;;5010551;28;75207;-63
2021/04/22 12:12:15;;;;;;;;;;;21.90;47.20;;;;;;5011767;28;75794;-69
2021/04/22 12:14:41;;;;;;;;;;;21.30;48.20;;;;;;5011429;28;77293;-62
2021/04/22 12:17:18;;;;;;;;;;;20.70;49.20;;;;;;5011107;28;77986;-63
2021/04/22 12:19:43;;;;;;;;;;;20.20;51.00;;;;;;5011143;28;76170;-66
2021/04/22 12:22:09;;;;;;;;;;;19.80;52.30;;;;;;5011242;28;75698;-63
2021/04/22 12:24:35;;;;;;;;;;;19.50;51.80;;;;;;5010972;28;74715;-65
2021/04/22 12:27:00;;;;;;;;;;;19.40;53.30;;;;;;5012645;28;75139;-66
2021/04/22 12:29:26;;;;;;;;;;;19.30;53.80;;;;;;5010822;28;77282;-61
2021/04/22 12:31:58;;;;;;;;;;;19.30;54.60;;;;;;5012503;28;75069;-61
2021/04/22 12:34:34;;;;;;;;;;;19.50;54.40;;;;;;5012143;28;75767;-60
2021/04/22 12:37:01;;;;;;;;;;;19.70;53.20;;;;;;5012477;28;75238;-63
2021/04/22 12:39:36;;;;;;;;;;;21.20;51.60;;;;;;5012441;28;76148;-61
2021/04/22 12:42:02;;;;;;;;;;;21.70;48.80;;;;;;5011657;28;75105;-61
2021/04/22 12:44:27;;;;;;;;;;;21.50;48.70;;;;;;5012632;28;74521;-65
2021/04/22 12:46:53;;;;;;;;;;;21.10;48.70;;;;;;5010707;28;77254;-60
2021/04/22 12:49:20;;;;;;;;;;;20.80;49.70;;;;;;5025619;28;74576;-68
2021/04/22 12:51:45;;;;;;;;;;;20.50;50.40;;;;;;5032581;28;74618;-71
2021/04/22 12:54:15;;;;;;;;;;;20.20;50.60;;;;;;5032521;28;75161;-71
2021/04/22 12:56:41;;;;;;;;;;;20.20;50.10;;;;;;5032658;28;74858;-64
2021/04/22 12:59:07;;;;;;;;;;;22.60;49.10;;;;;;5031737;28;76258;-56
2021/04/22 13:01:34;;;;;;;;;;;27.30;40.60;;;;;;5032338;28;75115;-58
2021/04/22 13:04:02;;;;;;;;;;;30.60;35.10;;;;;;5032292;28;75370;-58
2021/04/22 13:06:28;;;;;;;;;;;33.10;31.10;;;;;;5032922;28;76009;-57
2021/04/22 13:08:57;;;;;;;;;;;33.60;30.00;;;;;;5030573;28;75877;-56
2021/04/22 13:11:27;;;;;;;;;;;32.30;30.60;;;;;;5032286;28;75149;-57
2021/04/22 13:13:54;;;;;;;;;;;30.50;32.30;;;;;;5032741;28;74486;-57
2021/04/22 13:16:24;;;;;;;;;;;29.30;34.90;;;;;;5032307;28;75108;-58
2021/04/22 13:18:55;;;;;;;;;;;28.40;35.40;;;;;;5032461;28;74579;-56
2021/04/22 13:21:24;;;;;;;;;;;27.40;36.10;;;;;;5030780;28;74605;-56
2021/04/22 13:23:51;;;;;;;;;;;26.60;35.30;;;;;;5030879;28;75264;-56
2021/04/22 13:26:22;;;;;;;;;;;25.50;38.20;;;;;;5032252;28;75175;-56
2021/04/22 13:28:55;;;;;;;;;;;24.80;40.10;;;;;;5032307;28;75096;-58
2021/04/22 13:31:25;;;;;;;;;;;24.90;40.10;;;;;;5031826;28;76585;-56
2021/04/22 13:33:51;;;;;;;;;;;25.20;40.80;;;;;;5031656;28;75422;-56
2021/04/22 13:36:19;;;;;;;;;;;25.50;39.90;;;;;;5032430;28;74512;-56
2021/04/22 13:38:56;;;;;;;;;;;25.90;37.80;;;;;;5031712;28;75168;-58
2021/04/22 13:41:22;;;;;;;;;;;25.90;37.70;;;;;;5031965;28;75160;-56
2021/04/22 13:43:55;;;;;;;;;;;25.70;38.60;;;;;;5031821;28;75498;-55
2021/04/22 13:46:21;;;;;;;;;;;25.20;39.90;;;;;;5031922;28;74972;-56
2021/04/22 13:48:52;;;;;;;;;;;24.40;41.20;;;;;;5031648;28;75414;-56
2021/04/22 13:51:21;;;;;;;;;;;23.70;43.30;;;;;;5030660;28;76342;-58
2021/04/22 13:53:47;;;;;;;;;;;23.10;44.70;;;;;;5030074;28;77677;-56
2021/04/22 13:56:12;;;;;;;;;;;22.50;44.50;;;;;;5030673;28;77985;-58
2021/04/22 13:58:38;;;;;;;;;;;22.00;46.60;;;;;;5031496;28;75095;-57
2021/04/22 14:01:18;;;;;;;;;;;21.70;47.40;;;;;;5031617;28;74583;-57
2021/04/22 14:03:45;;;;;;;;;;;21.50;48.10;;;;;;5031818;28;76465;-56
2021/04/22 14:06:10;;;;;;;;;;;21.30;49.60;;;;;;5032064;28;75568;-59
2021/04/22 14:08:36;;;;;;;;;;;21.00;51.50;;;;;;5031534;28;75242;-57
2021/04/22 14:11:11;;;;;;;;;;;20.70;52.80;;;;;;5030594;28;76250;-57
2021/04/22 14:13:37;;;;;;;;;;;20.30;53.30;;;;;;5034994;28;75232;-61
2021/04/22 14:16:02;;;;;;;;;;;19.90;55.10;;;;;;5035119;28;75399;-65